^^
Station Historical Data
Daily Summary for January 22, 2018 Units:  Metric    English   Both
« Previous Day
Next Day »
Daily Weekly Monthly Yearly Custom
  High: Low: Average:
Temperature: -17.8 °C 15.9 °C 20.9 °C
Dew Point: -17.8 °C 6.2 °C 11.6 °C
Humidity: Humidity% 24% 59%
Wind Speed: 0km/h 0km/h 16.1km/h
Wind Gust: 0km/h - -
Wind- - SSW
Pressure: 0 hPa 1004.6 hPa -
Precipitation: 0 mm    
Historical Graphs
 
 
Tabular Data for January 22, 2018
Time Temperature Dew Point Pressure Wind Wind Speed Wind Gust Humidity Rainfall Rate (Hourly) solar Conditions
-17.8 °C -17.8 °C 0 hPa Calm     Humidity% 0 mm SolarRadiationWatts/m^2 W/m2 Conditions
01:01 19.7 °C 13.6 °C 1007.3 hPa SSW 20.9 km/h 22.5 km/h 68% 0 mm 0.0 W/m2
01:06 19.6 °C 13.5 °C 1007.3 hPa SSW 19.5 km/h 25.7 km/h 68% 0 mm 0.0 W/m2
01:16 19.7 °C 13.6 °C 1007.7 hPa SSW 19.5 km/h 24.1 km/h 68% 0 mm 0.0 W/m2
01:26 19.5 °C 13.7 °C 1006.7 hPa SSW 11.1 km/h 17.7 km/h 69% 0 mm 0.0 W/m2
01:31 19.4 °C 13.8 °C 1006.3 hPa SSW 7.9 km/h 14.5 km/h 70% 0 mm 0.0 W/m2
01:36 19.3 °C 13.7 °C 1006.7 hPa SSW 14.3 km/h 16.1 km/h 70% 0 mm 0.0 W/m2
01:41 19.3 °C 13.7 °C 1006.7 hPa SSW 17.7 km/h 20.9 km/h 70% 0 mm 0.0 W/m2
01:46 19.3 °C 13.7 °C 1006.7 hPa SSW 19.5 km/h 20.9 km/h 70% 0 mm 0.0 W/m2
01:51 19.2 °C 13.6 °C 1007.3 hPa SW 17.7 km/h 25.7 km/h 70% 0 mm 0.0 W/m2
01:56 19.2 °C 13.6 °C 1006.7 hPa SW 17.7 km/h 19.3 km/h 70% 0 mm 0.0 W/m2
02:01 19.1 °C 13.5 °C 1006.7 hPa SSW 19.5 km/h 22.5 km/h 70% 0 mm 0.0 W/m2
02:11 18.9 °C 13.7 °C 1007 hPa SW 17.7 km/h 24.1 km/h 72% 0 mm 0.0 W/m2
02:16 18.8 °C 13.9 °C 1007 hPa SW 20.9 km/h 24.1 km/h 73% 0 mm 0.0 W/m2
02:22 18.8 °C 13.9 °C 1007 hPa SW 17.7 km/h 20.9 km/h 73% 0 mm 0.0 W/m2
02:27 18.7 °C 13.8 °C 1007.3 hPa SW 16.3 km/h 19.3 km/h 73% 0 mm 0.0 W/m2
02:32 18.7 °C 13.8 °C 1007 hPa SW 16.3 km/h 24.1 km/h 73% 0 mm 0.0 W/m2
02:37 18.6 °C 13.7 °C 1006.3 hPa SW 17.7 km/h 22.5 km/h 73% 0 mm 0.0 W/m2
02:42 18.6 °C 13.7 °C 1006.3 hPa SW 19.5 km/h 22.5 km/h 73% 0 mm 0.0 W/m2
02:52 18.6 °C 13.9 °C 1006.3 hPa SW 16.3 km/h 19.3 km/h 74% 0 mm 0.0 W/m2
02:57 18.4 °C 13.9 °C 1006.3 hPa SW 17.7 km/h 17.7 km/h 75% 0 mm 0.0 W/m2
03:02 18.3 °C 13.8 °C 1006.3 hPa SW 11.1 km/h 19.3 km/h 75% 0 mm 0.0 W/m2
03:07 18.3 °C 13.8 °C 1006.3 hPa SW 11.1 km/h 19.3 km/h 75% 0 mm 0.0 W/m2
03:12 18.3 °C 13.8 °C 1006.3 hPa SW 16.3 km/h 16.3 km/h 75% 0 mm 0.0 W/m2
03:22 18.2 °C 13.7 °C 1006 hPa SW 14.3 km/h 16.1 km/h 75% 0 mm 0.0 W/m2
03:27 18.1 °C 13.6 °C 1006.3 hPa SW 11.1 km/h 14.5 km/h 75% 0 mm 0.0 W/m2
03:32 18.1 °C 13.6 °C 1006.3 hPa SW 13 km/h 14.5 km/h 75% 0 mm 0.0 W/m2
03:42 17.9 °C 13.6 °C 1006.3 hPa SW 17.7 km/h 17.7 km/h 76% 0 mm 0.0 W/m2
03:47 17.8 °C 13.7 °C 1006.3 hPa SW 7.9 km/h 17.7 km/h 77% 0 mm 0.0 W/m2
03:52 17.7 °C 13.6 °C 1006.3 hPa SW 14.3 km/h 16.1 km/h 77% 0 mm 0.0 W/m2
04:02 17.5 °C 13.6 °C 1006.3 hPa SW 9.7 km/h 14.5 km/h 78% 0 mm 0.0 W/m2
04:07 17.4 °C 13.5 °C 1006.3 hPa SW 11.1 km/h 14.5 km/h 78% 0 mm 0.0 W/m2
04:12 17.3 °C 13.6 °C 1006.3 hPa SW 16.3 km/h 16.3 km/h 79% 0 mm 0.0 W/m2
04:17 17.3 °C 13.6 °C 1006.3 hPa SW 9.7 km/h 14.5 km/h 79% 0 mm 0.0 W/m2
04:23 17.2 °C 13.5 °C 1006.3 hPa SW 11.1 km/h 16.1 km/h 79% 0 mm 0.0 W/m2
04:28 17.1 °C 13.4 °C 1006.3 hPa SW 13 km/h 16.1 km/h 79% 0 mm 0.0 W/m2
04:33 17.1 °C 13.4 °C 1006.3 hPa SW 9.7 km/h 14.5 km/h 79% 0 mm 0.0 W/m2
04:38 16.9 °C 13.2 °C 1006.3 hPa SW 13 km/h 17.7 km/h 79% 0 mm 0.0 W/m2
05:13 16.6 °C 13.1 °C 1006.7 hPa SW 7.9 km/h 12.9 km/h 80% 0 mm 0.0 W/m2
05:28 16.4 °C 13.1 °C 1006.7 hPa SW 7.9 km/h 12.9 km/h 81% 0 mm 0.0 W/m2
05:33 16.4 °C 13.1 °C 1006.7 hPa SW 7.9 km/h 9.7 km/h 81% 0 mm 0.0 W/m2
05:38 16.4 °C 13.1 °C 1006.7 hPa SW 7.9 km/h 11.3 km/h 81% 0 mm 0.0 W/m2
05:44 16.3 °C 13 °C 1006.7 hPa SW 7.9 km/h 12.9 km/h 81% 0 mm 0.0 W/m2
05:48 16.3 °C 13 °C 1006.7 hPa SW 13 km/h 13 km/h 81% 0 mm 0.0 W/m2
05:54 16.2 °C 13.1 °C 1006.7 hPa SW 7.9 km/h 11.3 km/h 82% 0 mm 0.0 W/m2
05:59 16.2 °C 13.1 °C 1007 hPa SW 9.7 km/h 11.3 km/h 82% 0 mm 0.0 W/m2
06:04 16.2 °C 13.1 °C 1006.7 hPa SW 11.1 km/h 11.3 km/h 82% 0 mm 0.0 W/m2
06:09 16.1 °C 13 °C 1006.7 hPa SW 14.3 km/h 17.7 km/h 82% 0 mm 0.0 W/m2
06:14 16.1 °C 13.2 °C 1006.7 hPa SW 13 km/h 14.5 km/h 83% 0 mm 0.0 W/m2
06:25 15.9 °C 13 °C 1007 hPa SW 7.9 km/h 11.3 km/h 83% 0 mm 7.0 W/m2
06:34 15.9 °C 13 °C 1007 hPa SW 9.7 km/h 12.9 km/h 83% 0 mm 18.0 W/m2
06:40 16 °C 13.1 °C 1007 hPa SW 11.1 km/h 11.3 km/h 83% 0 mm 25.0 W/m2
06:44 16.1 °C 13.2 °C 1007 hPa SW 11.1 km/h 11.3 km/h 83% 0 mm 39.0 W/m2
06:54 16.3 °C 13.2 °C 1007.3 hPa SW 7.9 km/h 11.3 km/h 82% 0 mm 67.0 W/m2
07:07 16.5 °C 13.2 °C 1007.3 hPa SW 7.9 km/h 12.9 km/h 81% 0 mm 104.0 W/m2
07:20 16.6 °C 13.3 °C 1007.7 hPa SW 13 km/h 14.5 km/h 81% 0 mm 146.0 W/m2
07:45 17.1 °C 13.2 °C 1008.4 hPa SW 14.3 km/h 20.9 km/h 78% 0 mm 248.0 W/m2
08:36 19.3 °C 12.6 °C 1008.4 hPa SSW 14.3 km/h 19.3 km/h 65% 0 mm 425.0 W/m2
09:23 20.7 °C 12.7 °C 1008.7 hPa SSW 14.3 km/h 19.3 km/h 60% 0 mm 578.0 W/m2
09:42 21.2 °C 12.9 °C 1008.7 hPa SW 17.7 km/h 17.7 km/h 59% 0 mm 643.0 W/m2
10:35 22.7 °C 12 °C 1008.4 hPa SW 17.7 km/h 20.9 km/h 51% 0 mm 786.0 W/m2
10:44 23.1 °C 12.1 °C 1008.4 hPa SSW 14.3 km/h 17.7 km/h 50% 0 mm 821.0 W/m2
10:52 23.4 °C 11.4 °C 1008.4 hPa SW 9.7 km/h 20.9 km/h 47% 0 mm 847.0 W/m2
13:16 27 °C 8.9 °C 1007.3 hPa SW 14.3 km/h 16.1 km/h 32% 0 mm 986.0 W/m2
13:25 27.3 °C 8.2 °C 1007 hPa SSW 22.7 km/h 24.1 km/h 30% 0 mm 981.0 W/m2
13:36 27.7 °C 8 °C 1007 hPa SSW 22.7 km/h 22.7 km/h 29% 0 mm 977.0 W/m2
13:46 27.6 °C 7.4 °C 1007 hPa SW 13 km/h 13 km/h 28% 0 mm 970.0 W/m2
13:57 27.8 °C 6.5 °C 1006.7 hPa SSW 7.9 km/h 12.9 km/h 26% 0 mm 962.0 W/m2
14:12 28.8 °C 6.8 °C 1006.3 hPa SSW 9.7 km/h 22.5 km/h 25% 0 mm 940.0 W/m2
14:21 28.7 °C 6.7 °C 1006.3 hPa Calm   17.7 km/h 25% 0 mm 928.0 W/m2
14:33 28.8 °C 6.8 °C 1006.3 hPa SSW 13 km/h 19.3 km/h 25% 0 mm 911.0 W/m2
14:48 29.1 °C 6.5 °C 1006.3 hPa Calm     24% 0 mm 888.0 W/m2
14:57 28.8 °C 6.2 °C 1006.3 hPa SW 13 km/h 24.1 km/h 24% 0 mm 870.0 W/m2
15:18 29.3 °C 6.6 °C 1006 hPa SW 9.7 km/h 16.1 km/h 24% 0 mm 826.0 W/m2
15:31 29.5 °C 6.8 °C 1005.6 hPa WSW 9.7 km/h 24.1 km/h 24% 0 mm 791.0 W/m2
15:54 29 °C 7.6 °C 1005.6 hPa SSW 13 km/h 17.7 km/h 26% 0 mm 735.0 W/m2
16:04 29.4 °C 7.9 °C 1005.3 hPa SW 16.3 km/h 24.1 km/h 26% 0 mm 710.0 W/m2
16:19 29.4 °C 7.9 °C 1005.3 hPa South 17.7 km/h 35.4 km/h 26% 0 mm 666.0 W/m2
16:49 28.7 °C 8.4 °C 1005 hPa SSW 6.4 km/h 24.1 km/h 28% 0 mm 570.0 W/m2
17:03 28.8 °C 8.5 °C 1004.6 hPa SW 24.1 km/h 27.4 km/h 28% 0 mm 519.0 W/m2
17:13 28.9 °C 8.6 °C 1005 hPa SSW 9.7 km/h 29 km/h 28% 0 mm 490.0 W/m2
17:22 28.7 °C 8.9 °C 1005 hPa SSW 25.9 km/h 25.9 km/h 29% 0 mm 455.0 W/m2
17:32 28.8 °C 9.5 °C 1005 hPa SSW 24.1 km/h 29 km/h 30% 0 mm 420.0 W/m2
17:40 28.3 °C 9.1 °C 1005 hPa SSW 22.7 km/h 30.6 km/h 30% 0 mm 381.0 W/m2
17:50 28.3 °C 9.1 °C 1005 hPa SSW 27.4 km/h 29 km/h 30% 0 mm 348.0 W/m2
18:01 28.1 °C 9.4 °C 1005 hPa SSW 19.5 km/h 35.4 km/h 31% 0 mm 313.0 W/m2
18:07 28.1 °C 9.4 °C 1005 hPa South 32 km/h 38.6 km/h 31% 0 mm 295.0 W/m2
18:12 27.9 °C 9.7 °C 1005 hPa SSW 20.9 km/h 35.4 km/h 32% 0 mm 278.0 W/m2
18:18 27.8 °C 9.6 °C 1005.3 hPa SSW 30.6 km/h 35.4 km/h 32% 0 mm 260.0 W/m2
18:30 27.5 °C 10.2 °C 1005.3 hPa South 27.4 km/h 30.6 km/h 34% 0 mm 220.0 W/m2
18:46 26.7 °C 11.6 °C 1005.6 hPa SSW 32 km/h 35.4 km/h 39% 0 mm 156.0 W/m2
19:00 25.9 °C 11.6 °C 1005.6 hPa SSW 27.4 km/h 33.8 km/h 41% 0 mm 97.0 W/m2
19:15 25.3 °C 12.5 °C 1006 hPa SSW 25.9 km/h 32.2 km/h 45% 0 mm 47.0 W/m2
19:40 24.1 °C 12.4 °C 1006.3 hPa SSW 25.9 km/h 35.4 km/h 48% 0 mm 11.0 W/m2
19:54 23.5 °C 12.5 °C 1006.7 hPa South 27.4 km/h 33.8 km/h 50% 0 mm 0.0 W/m2
20:03 23.1 °C 12.4 °C 1006.7 hPa SSW 28.8 km/h 35.4 km/h 51% 0 mm 0.0 W/m2
20:13 22.8 °C 12.4 °C 1007 hPa SSW 25.9 km/h 32.2 km/h 52% 0 mm 0.0 W/m2
20:23 22.7 °C 12.3 °C 1007 hPa SSW 16.3 km/h 20.9 km/h 52% 0 mm 0.0 W/m2
20:32 22.4 °C 12.3 °C 1007.3 hPa South 17.7 km/h 32.2 km/h 53% 0 mm 0.0 W/m2
20:38 22.2 °C 12.2 °C 1007.3 hPa SSW 28.8 km/h 30.6 km/h 53% 0 mm 0.0 W/m2
20:47 21.9 °C 12.2 °C 1007.7 hPa South 25.9 km/h 30.6 km/h 54% 0 mm 0.0 W/m2
20:56 21.6 °C 12.2 °C 1007.7 hPa SSW 20.9 km/h 25.7 km/h 55% 0 mm 0.0 W/m2
21:05 21.3 °C 12.2 °C 1008 hPa SSW 25.9 km/h 29 km/h 56% 0 mm 0.0 W/m2
21:11 21.2 °C 12.1 °C 1008 hPa SSW 14.3 km/h 27.4 km/h 56% 0 mm 0.0 W/m2
21:20 20.9 °C 12.1 °C 1008.4 hPa SSW 19.5 km/h 25.7 km/h 57% 0 mm 0.0 W/m2
21:26 20.8 °C 12 °C 1008.4 hPa South 20.9 km/h 27.4 km/h 57% 0 mm 0.0 W/m2
21:31 20.7 °C 12.1 °C 1008.4 hPa South 16.3 km/h 30.6 km/h 58% 0 mm 0.0 W/m2
21:37 20.6 °C 12.3 °C 1008.7 hPa South 20.9 km/h 25.7 km/h 59% 0 mm 0.0 W/m2
21:46 20.3 °C 12.3 °C 1008.7 hPa SSW 17.7 km/h 29 km/h 60% 0 mm 0.0 W/m2
21:56 20.1 °C 12.3 °C 1009 hPa SSW 20.9 km/h 27.4 km/h 61% 0 mm 0.0 W/m2
22:06 19.9 °C 12.2 °C 1009 hPa SSW 25.9 km/h 32.2 km/h 61% 0 mm 0.0 W/m2
22:16 19.7 °C 12.2 °C 1009 hPa SW 16.3 km/h 25.7 km/h 62% 0 mm 0.0 W/m2
22:21 19.7 °C 12.5 °C 1009 hPa SSW 16.3 km/h 17.7 km/h 63% 0 mm 0.0 W/m2
22:26 19.6 °C 12.4 °C 1009 hPa SSW 9.7 km/h 17.7 km/h 63% 0 mm 0.0 W/m2
22:31 19.6 °C 12.1 °C 1009 hPa South 17.7 km/h 22.5 km/h 62% 0 mm 0.0 W/m2
22:41 19.5 °C 12 °C 1009.4 hPa South 16.3 km/h 19.3 km/h 62% 0 mm 0.0 W/m2
22:51 19.4 °C 11.7 °C 1009.4 hPa SSW 16.3 km/h 22.5 km/h 61% 0 mm 0.0 W/m2
22:57 19.3 °C 10.8 °C 1009.4 hPa SSW 20.9 km/h 20.9 km/h 58% 0 mm 0.0 W/m2
23:06 19.2 °C 10.7 °C 1009.4 hPa South 16.3 km/h 24.1 km/h 58% 0 mm 0.0 W/m2
23:16 19.1 °C 11.4 °C 1009.7 hPa SSE 16.3 km/h 20.9 km/h 61% 0 mm 0.0 W/m2
23:26 18.9 °C 11.2 °C 1009.7 hPa SSW 22.7 km/h 22.7 km/h 61% 0 mm 0.0 W/m2
23:31 18.9 °C 11.7 °C 1009.7 hPa SSW 17.7 km/h 24.1 km/h 63% 0 mm 0.0 W/m2
23:41 18.7 °C 12 °C 1009.7 hPa South 22.7 km/h 22.7 km/h 65% 0 mm 0.0 W/m2
23:46 18.6 °C 11.9 °C 1009.7 hPa SSW 17.7 km/h 24.1 km/h 65% 0 mm 0.0 W/m2
23:51 18.5 °C 11.8 °C 1009.7 hPa SSW 19.5 km/h 22.5 km/h 65% 0 mm 0.0 W/m2
Canyon Roadhouse, Fishriver Canyon, Namibia
Compliments of Weather Underground - 2.25 mb